createdAt,value
2019-02-08T00:01:49.179Z,54.87
2019-02-08T00:05:55.031Z,54.73
2019-02-08T00:10:00.925Z,54.85
2019-02-08T00:14:06.729Z,54.96
2019-02-08T00:18:13.189Z,55.54
2019-02-08T00:22:18.874Z,55.97
2019-02-08T00:26:24.652Z,56.10
2019-02-08T00:30:31.145Z,56.09
2019-02-08T00:34:36.799Z,55.96
2019-02-08T00:38:43.036Z,56.20
2019-02-08T00:42:48.796Z,56.38
2019-02-08T00:46:54.817Z,56.52
2019-02-08T00:51:00.513Z,56.31
2019-02-08T00:55:09.915Z,56.39
2019-02-08T00:59:15.588Z,56.28
2019-02-08T01:03:21.308Z,56.10
2019-02-08T01:07:27.053Z,55.95
2019-02-08T01:11:32.749Z,56.16
2019-02-08T01:15:38.613Z,56.24
2019-02-08T01:19:44.300Z,55.80
2019-02-08T01:23:50.460Z,56.10
2019-02-08T01:27:56.331Z,56.20
2019-02-08T01:32:01.992Z,56.05
2019-02-08T01:36:07.672Z,56.05
2019-02-08T01:40:17.663Z,55.18
2019-02-08T01:44:23.353Z,55.96
2019-02-08T01:48:29.070Z,56.21
2019-02-08T01:52:34.735Z,55.94
2019-02-08T01:56:40.414Z,56.44
2019-02-08T02:00:46.483Z,56.01
2019-02-08T02:04:52.305Z,55.75
2019-02-08T02:08:58.059Z,55.92
2019-02-08T02:13:04.779Z,55.95
2019-02-08T02:17:10.468Z,56.36
2019-02-08T02:21:16.218Z,56.69
2019-02-08T02:25:22.645Z,56.88
2019-02-08T02:29:29.457Z,57.05
2019-02-08T02:33:35.245Z,57.21
2019-02-08T02:37:40.995Z,57.37
2019-02-08T02:41:46.745Z,57.85
2019-02-08T02:45:52.498Z,58.25
2019-02-08T02:49:58.259Z,58.31
2019-02-08T02:54:05.337Z,58.08
2019-02-08T02:58:11.167Z,58.38
2019-02-08T03:02:16.909Z,58.34
2019-02-08T03:06:23.524Z,57.81
2019-02-08T03:10:29.538Z,57.51
2019-02-08T03:14:35.235Z,57.87
2019-02-08T03:18:40.999Z,57.56
2019-02-08T03:22:47.577Z,57.79
2019-02-08T03:26:53.283Z,57.37
2019-02-08T03:30:59.014Z,57.25
2019-02-08T03:35:09.008Z,57.19
2019-02-08T03:39:14.713Z,56.97
2019-02-08T03:43:20.388Z,57.06
2019-02-08T03:47:26.083Z,56.96
2019-02-08T03:51:31.752Z,57.04
2019-02-08T03:55:38.929Z,57.03
2019-02-08T03:59:44.597Z,56.96
2019-02-08T04:03:51.152Z,56.27
2019-02-08T04:07:57.224Z,55.93
2019-02-08T04:12:02.895Z,55.98
2019-02-08T04:16:08.656Z,55.80
2019-02-08T04:20:18.547Z,55.81
2019-02-08T04:24:29.899Z,55.38
2019-02-08T04:28:31.668Z,55.52
2019-02-08T04:32:37.333Z,55.54
2019-02-08T04:36:43.018Z,54.75
2019-02-08T04:40:48.767Z,54.74
2019-02-08T04:44:54.444Z,54.27
2019-02-08T04:49:00.135Z,55.09
2019-02-08T04:53:06.019Z,54.39
2019-02-08T04:57:11.703Z,54.25
2019-02-08T05:01:17.486Z,54.81
2019-02-08T05:05:23.171Z,55.17
2019-02-08T05:09:28.866Z,54.91
2019-02-08T05:13:34.549Z,55.08
2019-02-08T05:17:40.380Z,54.41
2019-02-08T05:21:46.359Z,55.03
2019-02-08T05:25:52.090Z,55.21
2019-02-08T05:29:57.761Z,55.11
2019-02-08T05:34:03.447Z,55.39
2019-02-08T05:38:09.354Z,55.31
2019-02-08T05:42:15.022Z,55.80
2019-02-08T05:46:20.727Z,56.40
2019-02-08T05:50:29.130Z,56.71
2019-02-08T05:54:34.799Z,57.10
2019-02-08T05:58:40.476Z,56.78
2019-02-08T06:02:46.631Z,56.63
2019-02-08T06:06:54.107Z,56.51
2019-02-08T06:11:00.005Z,55.87
2019-02-08T06:15:11.510Z,56.33
2019-02-08T06:19:17.267Z,56.57
2019-02-08T06:23:23.012Z,56.79
2019-02-08T06:27:28.698Z,56.48
2019-02-08T06:31:34.406Z,56.33
2019-02-08T06:35:40.152Z,56.54
2019-02-08T06:39:45.910Z,56.44
2019-02-08T06:43:52.767Z,56.21
2019-02-08T06:47:58.674Z,56.31
2019-02-08T06:52:04.423Z,55.52
2019-02-08T06:56:11.843Z,55.62
2019-02-08T07:00:25.324Z,55.08
2019-02-08T07:04:38.457Z,54.52
2019-02-08T07:08:51.340Z,54.74
2019-02-08T07:12:58.736Z,55.47
2019-02-08T07:17:11.799Z,55.33
2019-02-08T07:21:28.067Z,55.27
2019-02-08T07:25:38.055Z,55.72
2019-02-08T07:29:48.143Z,55.99
2019-02-08T07:33:55.784Z,55.12
2019-02-08T07:38:03.440Z,54.42
2019-02-08T07:42:11.197Z,53.55
2019-02-08T07:46:18.743Z,53.21
2019-02-08T07:50:38.264Z,52.97
2019-02-08T07:54:48.559Z,52.72
2019-02-08T07:58:56.115Z,52.75
2019-02-08T08:03:18.397Z,52.83
2019-02-08T08:07:32.361Z,52.26
2019-02-08T08:11:45.978Z,53.25
2019-02-08T08:15:59.810Z,53.27
2019-02-08T08:20:17.643Z,52.89
2019-02-08T08:24:29.786Z,53.21
2019-02-08T08:28:37.247Z,53.12
2019-02-08T08:32:47.499Z,53.29
2019-02-08T08:37:09.613Z,53.75
2019-02-08T08:42:04.859Z,53.87
2019-02-08T08:46:40.550Z,53.05
2019-02-08T08:51:10.363Z,53.03
2019-02-08T08:55:47.678Z,52.81
2019-02-08T09:00:52.774Z,52.47
2019-02-08T09:05:18.214Z,52.14
2019-02-08T09:09:56.636Z,50.15
2019-02-08T09:14:15.458Z,50.59
2019-02-08T09:19:06.630Z,51.13
2019-02-08T09:23:28.091Z,50.15
2019-02-08T09:28:08.538Z,48.18
2019-02-08T09:32:41.166Z,48.45
2019-02-08T09:37:16.900Z,45.63
2019-02-08T09:41:32.690Z,44.37
2019-02-08T09:46:08.622Z,44.97
2019-02-08T09:50:39.954Z,45.73
2019-02-08T09:55:12.218Z,45.00
2019-02-08T09:59:58.107Z,43.00
2019-02-08T10:04:47.870Z,43.07
2019-02-08T10:09:37.879Z,40.49
2019-02-08T10:14:19.912Z,41.63
2019-02-08T10:18:51.343Z,41.83
2019-02-08T10:23:19.322Z,41.96
2019-02-08T10:28:04.328Z,41.28
2019-02-08T10:32:47.896Z,39.67
2019-02-08T10:37:26.376Z,41.58
2019-02-08T10:42:01.852Z,42.39
2019-02-08T10:46:37.782Z,41.69
2019-02-08T10:51:06.024Z,42.09
2019-02-08T10:55:52.346Z,43.60
2019-02-08T11:06:00.112Z,41.92
2019-02-08T11:10:40.453Z,42.37
2019-02-08T11:14:58.886Z,42.74
2019-02-08T11:19:19.229Z,41.58
2019-02-08T11:23:24.921Z,40.13
2019-02-08T11:27:30.691Z,40.24
2019-02-08T11:31:36.472Z,38.98
2019-02-08T11:35:42.167Z,35.33
2019-02-08T11:39:48.876Z,32.63
2019-02-08T11:43:54.596Z,29.61
2019-02-08T11:48:00.365Z,28.19
2019-02-08T11:52:06.275Z,28.28
2019-02-08T11:56:12.965Z,28.87
2019-02-08T12:00:29.596Z,28.78
2019-02-08T12:04:35.365Z,29.52
2019-02-08T12:08:41.069Z,29.96
2019-02-08T12:12:46.798Z,31.03
2019-02-08T12:16:52.493Z,32.45
2019-02-08T12:20:58.230Z,33.02
2019-02-08T12:25:05.165Z,33.16
2019-02-08T12:29:11.152Z,35.55
2019-02-08T12:33:16.911Z,37.07
2019-02-08T12:37:22.579Z,37.69
2019-02-08T12:41:28.286Z,38.48
2019-02-08T13:39:04.544Z,39.78
2019-02-08T13:43:10.344Z,39.72
2019-02-08T13:47:16.190Z,39.56
2019-02-08T13:51:21.874Z,40.07
2019-02-08T13:55:28.678Z,39.89
2019-02-08T13:59:34.353Z,39.59
2019-02-08T14:03:40.083Z,38.93
2019-02-08T14:07:45.779Z,38.82
2019-02-08T14:11:51.486Z,38.71
2019-02-08T14:15:57.890Z,39.07
2019-02-08T14:20:05.093Z,38.96
2019-02-08T14:24:10.861Z,39.43
2019-02-08T14:28:16.554Z,39.69
2019-02-08T14:32:22.278Z,39.91
2019-02-08T14:36:28.054Z,39.80
2019-02-08T14:40:33.875Z,39.89
2019-02-08T14:44:40.803Z,39.47
2019-02-08T14:48:46.668Z,39.41
2019-02-08T14:52:53.074Z,39.53
2019-02-08T14:56:58.796Z,39.99
2019-02-08T15:01:04.692Z,39.97
2019-02-08T15:05:14.096Z,39.90
2019-02-08T15:09:20.256Z,40.22
2019-02-08T15:13:25.943Z,40.30
2019-02-08T15:17:31.629Z,40.27
2019-02-08T15:21:37.353Z,40.45
2019-02-08T15:25:46.145Z,40.75
2019-02-08T15:29:51.855Z,40.93
2019-02-08T15:33:57.574Z,41.24
2019-02-08T15:38:03.897Z,41.24
2019-02-08T15:42:12.355Z,41.15
2019-02-08T15:46:18.142Z,41.40
2019-02-08T15:50:24.090Z,41.49
2019-02-08T15:54:30.996Z,41.46
2019-02-08T15:58:36.968Z,41.71
2019-02-08T16:02:44.783Z,41.85
2019-02-08T16:06:51.978Z,41.95
2019-02-08T16:10:57.810Z,42.19
2019-02-08T16:15:05.082Z,42.34
2019-02-08T16:19:11.371Z,42.52
2019-02-08T16:23:20.209Z,42.70
2019-02-08T16:27:25.927Z,42.82
2019-02-08T16:31:31.687Z,42.82
2019-02-08T16:35:37.595Z,42.78
2019-02-08T16:39:45.463Z,42.88
2019-02-08T16:43:51.243Z,43.08
2019-02-08T16:47:57.727Z,43.25
2019-02-08T16:52:03.682Z,43.25
2019-02-08T16:56:10.465Z,43.11
2019-02-08T17:00:23.375Z,43.40
2019-02-08T17:04:29.171Z,42.71
2019-02-08T17:08:34.856Z,43.04
2019-02-08T17:12:40.726Z,42.84
2019-02-08T17:16:46.560Z,42.84
2019-02-08T17:20:52.383Z,42.68
2019-02-08T17:24:58.086Z,42.47
2019-02-08T17:29:03.771Z,42.85
2019-02-08T17:33:10.583Z,42.71
2019-02-08T17:37:16.325Z,42.99
2019-02-08T17:41:22.168Z,43.29
2019-02-08T17:45:28.139Z,43.67
2019-02-08T17:49:33.841Z,43.53
2019-02-08T17:53:39.523Z,43.57
2019-02-08T17:57:45.289Z,43.15
2019-02-08T18:01:50.998Z,43.27
2019-02-08T18:05:57.161Z,43.53
2019-02-08T18:10:02.917Z,43.87
2019-02-08T18:14:08.797Z,44.40
2019-02-08T18:18:18.192Z,44.78
2019-02-08T18:22:23.892Z,44.74
2019-02-08T18:26:29.670Z,44.28
2019-02-08T18:30:35.682Z,44.58
2019-02-08T18:34:41.336Z,44.91
2019-02-08T18:38:47.015Z,45.19
2019-02-08T18:42:53.030Z,45.84
2019-02-08T18:46:58.721Z,45.92
2019-02-08T18:51:04.614Z,45.97
2019-02-08T18:55:10.356Z,46.27
2019-02-08T18:59:16.068Z,46.42
2019-02-08T19:08:40.807Z,46.49
2019-02-08T19:12:46.493Z,46.97
2019-02-08T19:16:52.265Z,47.26
2019-02-08T19:20:58.048Z,47.35
2019-02-08T19:25:05.558Z,47.25
2019-02-08T19:29:11.312Z,47.11
2019-02-08T19:33:17.121Z,46.83
2019-02-08T19:37:22.828Z,47.13
2019-02-08T19:41:28.500Z,47.35
2019-02-08T19:45:34.662Z,47.39
2019-02-08T19:49:40.407Z,47.35
2019-02-08T19:53:46.109Z,47.38
2019-02-08T19:57:52.386Z,47.36
2019-02-08T20:01:58.162Z,47.54
2019-02-08T20:06:04.183Z,47.19
2019-02-08T20:10:17.400Z,47.23
2019-02-08T20:14:23.219Z,47.11
2019-02-08T20:18:28.958Z,46.67
2019-02-08T20:22:34.729Z,46.61
2019-02-08T20:26:40.551Z,46.48
2019-02-08T20:30:46.343Z,46.49
2019-02-08T20:34:52.109Z,46.74
2019-02-08T20:38:57.785Z,46.31
2019-02-08T20:43:03.618Z,46.03
2019-02-08T20:47:09.383Z,45.75
2019-02-08T20:51:15.208Z,45.89
2019-02-08T20:55:22.325Z,45.36
2019-02-08T20:59:28.285Z,45.06
2019-02-08T21:03:34.057Z,44.84
2019-02-08T21:07:39.746Z,44.40
2019-02-08T21:11:45.489Z,44.08
2019-02-08T21:15:51.227Z,44.16
2019-02-08T21:19:56.921Z,44.30
2019-02-08T21:24:02.767Z,44.26
2019-02-08T21:28:09.129Z,44.14
2019-02-08T21:32:14.808Z,43.96
2019-02-08T21:36:20.479Z,43.85
2019-02-08T21:40:30.842Z,43.32
2019-02-08T21:44:36.547Z,43.11
2019-02-08T21:48:42.342Z,43.23
2019-02-08T21:52:48.031Z,43.54
2019-02-08T21:56:53.704Z,42.89
2019-02-08T22:00:59.662Z,42.89
2019-02-08T22:05:08.641Z,42.66
2019-02-08T22:09:15.722Z,42.18
2019-02-08T22:13:21.412Z,42.30
2019-02-08T22:17:27.168Z,42.31
2019-02-08T22:21:32.973Z,42.57
2019-02-08T22:25:39.074Z,42.68
2019-02-08T22:29:44.870Z,42.35
2019-02-08T22:33:50.553Z,42.53
2019-02-08T22:37:56.293Z,42.12
2019-02-08T22:42:01.975Z,41.95
2019-02-08T22:46:08.652Z,42.07
2019-02-08T22:50:16.547Z,42.14
2019-02-08T22:54:22.232Z,41.59
2019-02-08T22:58:27.891Z,41.41
2019-02-08T23:02:35.293Z,41.36
2019-02-08T23:06:44.954Z,41.30
2019-02-08T23:11:16.098Z,41.29
2019-02-08T23:15:22.072Z,41.73
2019-02-08T23:19:27.752Z,42.43
2019-02-08T23:23:33.441Z,42.77
2019-02-08T23:27:39.695Z,43.39
2019-02-08T23:31:45.654Z,41.78
2019-02-08T23:35:51.469Z,41.70
2019-02-08T23:39:57.151Z,41.49
2019-02-08T23:44:02.848Z,41.43
2019-02-08T23:48:08.825Z,41.30
2019-02-08T23:52:14.517Z,41.47
2019-02-08T23:56:20.213Z,41.52
